createdAt,value
2022-11-12T00:16:16.961Z,22.85
2022-11-12T00:18:43.475Z,21.75
2022-11-12T00:21:10.018Z,23.12
2022-11-12T00:23:36.606Z,20.37
2022-11-12T00:26:03.199Z,21.48
2022-11-12T00:28:34.730Z,23.77
2022-11-12T00:31:09.340Z,24.12
2022-11-12T00:33:40.586Z,21.15
2022-11-12T00:36:08.275Z,22.42
2022-11-12T00:38:34.902Z,24.20
2022-11-12T00:41:01.721Z,24.55
2022-11-12T00:43:28.630Z,22.20
2022-11-12T00:46:29.238Z,21.65
2022-11-12T00:49:05.771Z,20.60
2022-11-12T01:07:30.596Z,21.00
2022-11-12T01:09:57.125Z,22.02
2022-11-12T01:12:23.725Z,22.40
2022-11-12T01:14:50.432Z,23.45
2022-11-12T01:17:16.964Z,24.35
2022-11-12T01:26:18.071Z,22.33
2022-11-12T01:28:44.748Z,21.48
2022-11-12T01:31:19.832Z,21.40
2022-11-12T01:33:49.138Z,22.52
2022-11-12T01:36:17.813Z,21.55
2022-11-12T01:38:45.491Z,24.15
2022-11-12T01:59:57.714Z,23.12
2022-11-12T02:02:24.758Z,21.65
2022-11-12T02:04:51.748Z,20.80
2022-11-12T02:07:22.373Z,22.52
2022-11-12T02:09:49.031Z,19.70
2022-11-12T02:12:35.912Z,20.90
2022-11-12T02:23:02.020Z,20.65
2022-11-12T02:25:28.773Z,21.05
2022-11-12T02:27:56.817Z,25.30
2022-11-12T02:30:48.897Z,19.80
2022-11-12T02:33:49.338Z,19.15
2022-11-12T02:53:23.737Z,25.48
2022-11-12T02:55:50.635Z,23.65
2022-11-12T02:58:17.246Z,23.48
2022-11-12T03:00:43.794Z,24.48
2022-11-12T03:03:10.398Z,21.95
2022-11-12T03:09:01.200Z,25.48
2022-11-12T03:11:27.810Z,28.12
2022-11-12T03:13:54.355Z,24.27
2022-11-12T03:16:20.923Z,24.23
2022-11-12T03:18:47.512Z,22.60
2022-11-12T03:21:14.153Z,27.37
2022-11-12T03:23:58.893Z,29.63
2022-11-12T03:55:45.639Z,26.80
2022-11-12T03:58:14.385Z,25.90
2022-11-12T04:00:41.027Z,27.08
2022-11-12T04:03:09.748Z,22.73
2022-11-12T04:05:54.738Z,27.42
2022-11-12T04:16:43.966Z,24.10
2022-11-12T04:19:31.367Z,24.17
2022-11-12T04:22:09.522Z,25.80
2022-11-12T04:24:59.889Z,25.02
2022-11-12T04:27:31.845Z,23.73
2022-11-12T04:30:18.703Z,23.95
2022-11-12T04:32:50.366Z,24.55
2022-11-12T04:35:18.879Z,24.33
2022-11-12T04:43:40.897Z,26.25
2022-11-12T04:46:07.623Z,29.00
2022-11-12T04:53:57.606Z,28.85
2022-11-12T04:56:24.177Z,25.50
2022-11-12T04:59:53.225Z,28.60
2022-11-12T05:02:44.649Z,26.92
2022-11-12T05:05:11.215Z,28.25
2022-11-12T05:07:37.758Z,28.25
2022-11-12T05:10:04.583Z,31.98
2022-11-12T05:12:31.135Z,32.88
2022-11-12T05:14:58.031Z,33.63
2022-11-12T05:17:24.576Z,30.52
2022-11-12T05:19:51.932Z,32.13
2022-11-12T05:22:42.001Z,34.45
2022-11-12T05:25:06.500Z,34.28
2022-11-12T05:27:33.930Z,35.60
2022-11-12T05:30:00.540Z,35.53
2022-11-12T05:41:07.785Z,32.33
2022-11-12T05:43:34.346Z,31.67
2022-11-12T05:46:00.923Z,33.35
2022-11-12T05:49:14.604Z,32.08
2022-11-12T05:52:01.311Z,30.25
2022-11-12T05:54:27.943Z,32.10
2022-11-12T05:56:55.036Z,32.53
2022-11-12T05:59:22.237Z,36.25
2022-11-12T06:01:48.830Z,30.35
2022-11-12T06:04:16.079Z,32.53
2022-11-12T06:09:17.871Z,32.13
2022-11-12T06:11:44.411Z,30.73
2022-11-12T06:14:10.990Z,35.58
2022-11-12T06:16:37.619Z,34.65
2022-11-12T06:19:04.953Z,35.35
2022-11-12T06:21:31.487Z,33.95
2022-11-12T06:24:35.682Z,34.85
2022-11-12T06:27:27.309Z,34.72
2022-11-12T06:29:53.877Z,30.45
2022-11-12T06:32:20.446Z,36.63
2022-11-12T06:34:46.979Z,32.92
2022-11-12T06:37:13.659Z,32.30
2022-11-12T06:39:40.244Z,34.92
2022-11-12T06:55:15.736Z,29.02
2022-11-12T06:58:33.919Z,38.38
2022-11-12T07:01:21.462Z,33.25
2022-11-12T07:03:51.937Z,32.58
2022-11-12T07:06:20.540Z,34.10
2022-11-12T07:08:49.189Z,35.33
2022-11-12T07:11:16.982Z,33.80
2022-11-12T07:13:47.220Z,36.97
2022-11-12T07:16:18.415Z,29.90
2022-11-12T07:18:46.687Z,35.78
2022-11-12T07:21:16.297Z,33.50
2022-11-12T07:23:42.864Z,32.78
2022-11-12T07:26:24.443Z,33.45
2022-11-12T07:28:52.475Z,34.33
2022-11-12T07:31:20.377Z,32.83
2022-11-12T07:33:50.600Z,35.17
2022-11-12T07:36:19.399Z,32.15
2022-11-12T07:38:46.853Z,31.98
2022-11-12T07:41:14.762Z,31.45
2022-11-12T07:43:43.877Z,32.17
2022-11-12T07:46:16.102Z,37.15
2022-11-12T07:48:44.541Z,30.35
2022-11-12T07:51:14.051Z,30.45
2022-11-12T07:53:41.963Z,30.08
2022-11-12T07:56:11.423Z,32.08
2022-11-12T07:58:38.120Z,34.17
2022-11-12T08:01:19.891Z,32.53
2022-11-12T08:03:46.457Z,34.25
2022-11-12T08:06:13.224Z,34.05
2022-11-12T08:08:39.829Z,34.15
2022-11-12T08:11:06.455Z,32.45
2022-11-12T08:13:33.014Z,33.30
2022-11-12T08:16:00.377Z,34.53
2022-11-12T08:18:27.683Z,35.88
2022-11-12T08:21:02.547Z,33.42
2022-11-12T08:23:29.667Z,30.95
2022-11-12T08:26:03.355Z,31.75
2022-11-12T08:28:31.510Z,34.30
2022-11-12T08:31:03.187Z,32.85
2022-11-12T08:33:30.744Z,35.58
2022-11-12T08:35:57.603Z,34.67
2022-11-12T08:38:24.432Z,33.15
2022-11-12T08:40:51.209Z,29.83
2022-11-12T08:43:17.792Z,34.22
2022-11-12T08:45:44.679Z,30.83
2022-11-12T08:48:14.397Z,34.97
2022-11-12T08:50:42.243Z,31.52
2022-11-12T08:53:11.846Z,32.38
2022-11-12T08:55:39.222Z,31.77
2022-11-12T08:58:06.647Z,31.92
2022-11-12T09:00:37.249Z,33.67
2022-11-12T09:03:06.128Z,37.05
2022-11-12T09:05:35.227Z,34.75
2022-11-12T09:08:08.553Z,33.58
2022-11-12T09:10:36.543Z,33.35
2022-11-12T09:13:03.963Z,38.15
2022-11-12T09:15:37.448Z,33.90
2022-11-12T09:18:08.217Z,38.63
2022-11-12T09:20:34.782Z,32.20
2022-11-12T09:23:04.356Z,36.28
2022-11-12T09:25:31.233Z,34.88
2022-11-12T09:28:08.388Z,32.53
2022-11-12T09:30:36.077Z,35.95
2022-11-12T09:33:02.837Z,33.33
2022-11-12T09:35:29.938Z,35.22
2022-11-12T09:37:58.527Z,32.17
2022-11-12T09:40:45.393Z,32.25
2022-11-12T09:43:20.923Z,31.52
2022-11-12T09:46:00.296Z,30.15
2022-11-12T09:48:40.645Z,35.38
2022-11-12T09:51:11.515Z,32.38
2022-11-12T09:53:56.271Z,34.78
2022-11-12T09:56:24.496Z,35.88
2022-11-12T09:58:52.016Z,35.13
2022-11-12T10:01:22.356Z,33.63
2022-11-12T10:04:03.160Z,34.30
2022-11-12T10:06:45.447Z,30.75
2022-11-12T10:09:23.042Z,33.30
2022-11-12T10:12:19.703Z,35.47
2022-11-12T10:15:23.114Z,32.30
2022-11-12T10:18:21.039Z,34.45
2022-11-12T10:20:56.174Z,31.30
2022-11-12T10:23:33.907Z,32.10
2022-11-12T10:26:09.526Z,33.40
2022-11-12T10:29:02.870Z,37.25
2022-11-12T10:31:29.447Z,32.47
2022-11-12T10:34:13.826Z,29.42
2022-11-12T10:36:45.662Z,28.15
2022-11-12T10:39:38.247Z,28.23
2022-11-12T10:42:13.555Z,31.05
2022-11-12T10:44:42.466Z,33.05
2022-11-12T10:47:38.942Z,31.58
2022-11-12T10:50:16.019Z,31.48
2022-11-12T10:53:11.192Z,30.08
2022-11-12T10:55:55.047Z,33.45
2022-11-12T10:58:21.620Z,30.92
2022-11-12T11:01:05.182Z,31.90
2022-11-12T11:03:37.348Z,32.83
2022-11-12T11:06:21.644Z,33.33
2022-11-12T11:08:53.133Z,29.87
2022-11-12T11:11:32.029Z,33.33
2022-11-12T11:14:26.427Z,32.50
2022-11-12T11:19:42.840Z,34.55
2022-11-12T11:22:15.275Z,32.22
2022-11-12T11:24:50.684Z,33.72
2022-11-12T11:27:47.398Z,32.65
2022-11-12T11:30:19.014Z,33.20
2022-11-12T11:41:17.023Z,32.65
2022-11-12T11:43:49.908Z,33.10
2022-11-12T11:49:01.744Z,32.22
2022-11-12T11:51:43.629Z,32.00
2022-11-12T11:54:36.025Z,30.17
2022-11-12T11:57:13.098Z,35.05
2022-11-12T11:59:54.552Z,31.40
2022-11-12T12:02:21.013Z,30.55
2022-11-12T12:04:51.304Z,32.13
2022-11-12T12:07:26.591Z,32.40
2022-11-12T12:10:09.206Z,33.38
2022-11-12T12:13:08.620Z,31.98
2022-11-12T12:15:58.172Z,31.45
2022-11-12T12:18:39.923Z,29.42
2022-11-12T12:21:18.806Z,30.20
2022-11-12T12:23:54.835Z,29.12
2022-11-12T12:26:30.775Z,30.98
2022-11-12T12:29:21.801Z,30.80
2022-11-12T12:31:53.434Z,27.58
2022-11-12T12:34:33.760Z,30.20
2022-11-12T12:37:07.583Z,28.62
2022-11-12T12:39:47.738Z,28.15
2022-11-12T12:42:29.861Z,27.00
2022-11-12T12:45:03.268Z,29.60
2022-11-12T12:47:36.857Z,30.48
2022-11-12T12:50:07.596Z,26.15
2022-11-12T12:53:03.762Z,31.77
2022-11-12T12:55:41.870Z,26.90
2022-11-12T12:58:31.483Z,24.10
2022-11-12T13:01:19.127Z,22.67
2022-11-12T13:03:53.828Z,23.67
2022-11-12T13:06:23.266Z,24.20
2022-11-12T13:09:18.116Z,22.27
2022-11-12T13:12:03.205Z,21.15
2022-11-12T13:14:35.485Z,21.62
2022-11-12T13:17:05.115Z,20.50
2022-11-12T13:19:37.948Z,21.02
2022-11-12T13:25:02.686Z,16.12
2022-11-12T13:27:44.409Z,15.60
2022-11-12T13:30:30.855Z,17.55
2022-11-12T13:32:59.051Z,20.60
2022-11-12T13:35:25.665Z,15.73
2022-11-12T13:38:12.990Z,16.75
2022-11-12T13:40:44.561Z,17.05
2022-11-12T13:43:27.794Z,17.70
2022-11-12T13:45:59.926Z,21.02
2022-11-12T13:48:59.723Z,21.15
2022-11-12T13:51:41.087Z,17.70
2022-11-12T13:54:34.688Z,20.95
2022-11-12T13:57:24.023Z,16.17
2022-11-12T14:00:22.115Z,22.60
2022-11-12T14:03:05.293Z,20.48
2022-11-12T14:08:25.738Z,20.58
2022-11-12T14:11:22.070Z,19.00
2022-11-12T14:14:06.479Z,19.55
2022-11-12T14:16:44.650Z,23.55
2022-11-12T14:19:45.266Z,22.85
2022-11-12T14:22:22.203Z,22.98
2022-11-12T14:25:00.420Z,25.23
2022-11-12T14:27:30.428Z,26.00
2022-11-12T14:30:35.304Z,23.55
2022-11-12T14:33:10.102Z,25.25
2022-11-12T14:35:37.795Z,27.60
2022-11-12T14:38:30.339Z,26.08
2022-11-12T14:41:01.945Z,24.95
2022-11-12T14:43:54.980Z,27.98
2022-11-12T14:46:29.130Z,26.98
2022-11-12T14:49:07.419Z,25.73
2022-11-12T14:51:47.220Z,25.73
2022-11-12T14:54:27.765Z,29.25
2022-11-12T14:56:54.886Z,25.80
2022-11-12T14:59:21.907Z,28.95
2022-11-12T15:02:31.397Z,24.60
2022-11-12T15:05:01.200Z,26.85
2022-11-12T15:07:33.994Z,27.70
2022-11-12T15:10:01.698Z,36.72
2022-11-12T15:12:31.572Z,29.48
2022-11-12T15:15:18.837Z,27.70
2022-11-12T15:17:45.471Z,30.95
2022-11-12T15:20:21.217Z,33.80
2022-11-12T15:22:53.164Z,32.60
2022-11-12T15:25:26.480Z,34.67
2022-11-12T15:27:56.420Z,39.22
2022-11-12T15:30:28.747Z,43.83
2022-11-12T15:33:13.721Z,42.20
2022-11-12T15:35:47.264Z,40.45
2022-11-12T15:38:23.227Z,39.92
2022-11-12T15:40:57.575Z,39.58
2022-11-12T15:43:28.512Z,37.15
2022-11-12T15:45:56.429Z,39.42
2022-11-12T15:48:23.211Z,40.88
2022-11-12T15:50:49.904Z,40.72
2022-11-12T15:53:16.663Z,30.37
2022-11-12T15:55:44.058Z,31.75
2022-11-12T15:58:17.440Z,36.75
2022-11-12T16:00:44.326Z,33.55
2022-11-12T16:03:14.878Z,34.58
2022-11-12T16:05:42.099Z,30.08
2022-11-12T16:08:08.779Z,34.38
2022-11-12T16:10:36.636Z,35.10
2022-11-12T16:13:05.273Z,32.97
2022-11-12T16:15:32.226Z,36.15
2022-11-12T16:18:01.806Z,33.17
2022-11-12T16:20:32.070Z,34.63
2022-11-12T16:22:58.703Z,37.72
2022-11-12T16:25:30.324Z,35.92
2022-11-12T16:27:58.075Z,69.70
2022-11-12T16:30:33.958Z,43.47
2022-11-12T16:33:01.798Z,39.05
2022-11-12T16:35:31.422Z,39.08
2022-11-12T16:37:57.943Z,39.22
2022-11-12T16:40:27.357Z,35.67
2022-11-12T16:42:54.000Z,37.47
2022-11-12T16:45:22.857Z,39.88
2022-11-12T16:47:54.659Z,37.42
2022-11-12T16:50:24.658Z,35.85
2022-11-12T16:52:51.439Z,36.42
2022-11-12T16:55:18.089Z,38.97
2022-11-12T16:57:45.200Z,39.28
2022-11-12T17:00:17.681Z,33.47
2022-11-12T17:02:49.382Z,35.20
2022-11-12T17:05:21.281Z,34.38
2022-11-12T17:07:48.914Z,33.53
2022-11-12T17:10:16.914Z,36.70
2022-11-12T17:12:43.570Z,35.55
2022-11-12T17:15:10.368Z,37.65
2022-11-12T17:17:55.340Z,38.90
2022-11-12T17:20:22.080Z,34.00
2022-11-12T17:22:48.673Z,33.70
2022-11-12T17:25:15.358Z,41.00
2022-11-12T17:27:42.271Z,43.90
2022-11-12T17:30:10.071Z,46.47
2022-11-12T17:32:36.648Z,47.05
2022-11-12T17:35:03.245Z,41.83
2022-11-12T17:37:29.767Z,43.47
2022-11-12T17:39:56.358Z,39.90
2022-11-12T17:42:22.964Z,42.17
2022-11-12T17:44:49.523Z,41.72
2022-11-12T17:47:16.035Z,42.13
2022-11-12T17:49:42.694Z,43.03
2022-11-12T17:52:09.239Z,39.60
2022-11-12T17:54:36.592Z,43.30
2022-11-12T17:57:03.164Z,44.95
2022-11-12T17:59:29.779Z,43.05
2022-11-12T18:01:56.363Z,40.95
2022-11-12T18:04:23.923Z,43.05
2022-11-12T18:06:50.789Z,47.47
2022-11-12T18:09:17.514Z,47.75
2022-11-12T18:11:50.023Z,51.42
2022-11-12T18:14:16.924Z,52.20
2022-11-12T18:16:43.564Z,51.08
2022-11-12T18:19:11.165Z,51.00
2022-11-12T18:21:40.014Z,47.03
2022-11-12T18:24:07.831Z,46.45
2022-11-12T18:26:34.998Z,44.15
2022-11-12T18:29:01.605Z,44.83
2022-11-12T18:31:28.716Z,48.22
2022-11-12T18:33:56.009Z,45.53
2022-11-12T18:36:25.528Z,51.65
2022-11-12T18:38:55.485Z,45.90
2022-11-12T18:41:26.017Z,46.10
2022-11-12T18:43:53.983Z,54.13
2022-11-12T18:46:20.571Z,52.42
2022-11-12T18:48:47.572Z,54.17
2022-11-12T18:51:16.510Z,60.83
2022-11-12T18:53:43.623Z,61.58
2022-11-12T18:56:16.080Z,64.55
2022-11-12T18:58:43.146Z,67.72
2022-11-12T19:01:24.022Z,72.18
2022-11-12T19:03:55.927Z,71.28
2022-11-12T19:06:23.623Z,68.95
2022-11-12T19:08:50.819Z,70.70
2022-11-12T19:11:19.100Z,65.55
2022-11-12T19:13:45.701Z,70.05
2022-11-12T19:16:16.925Z,71.72
2022-11-12T19:18:44.231Z,66.12
2022-11-12T19:21:15.962Z,66.15
2022-11-12T19:23:43.092Z,65.90
2022-11-12T19:26:13.551Z,64.25
2022-11-12T19:28:40.718Z,63.13
2022-11-12T19:31:12.744Z,60.92
2022-11-12T19:33:39.497Z,65.07
2022-11-12T19:36:08.763Z,64.03
2022-11-12T19:38:35.335Z,62.85
2022-11-12T19:41:13.394Z,61.03
2022-11-12T19:43:42.969Z,56.28
2022-11-12T19:46:11.304Z,56.00
2022-11-12T19:48:38.744Z,62.08
2022-11-12T19:51:07.321Z,51.75
2022-11-12T19:53:40.948Z,54.22
2022-11-12T19:56:08.091Z,67.87
2022-11-12T19:58:35.106Z,70.87
2022-11-12T20:01:06.613Z,75.62
2022-11-12T20:03:33.871Z,73.18
2022-11-12T20:06:05.616Z,67.22
2022-11-12T20:08:33.080Z,60.40
2022-11-12T20:11:00.179Z,62.22
2022-11-12T20:13:27.467Z,58.75
2022-11-12T20:15:54.288Z,59.05
2022-11-12T20:18:21.208Z,57.88
2022-11-12T20:20:51.352Z,56.42
2022-11-12T20:23:18.023Z,55.95
2022-11-12T20:25:44.655Z,56.30
2022-11-12T20:28:11.963Z,57.17
2022-11-12T20:30:39.225Z,56.45
2022-11-12T20:33:05.784Z,54.40
2022-11-12T20:35:36.377Z,54.65
2022-11-12T20:38:04.551Z,57.15
2022-11-12T20:40:32.230Z,60.42
2022-11-12T20:42:59.033Z,51.50
2022-11-12T20:45:27.137Z,62.38
2022-11-12T20:47:56.377Z,52.03
2022-11-12T20:50:23.642Z,54.95
2022-11-12T20:52:50.301Z,53.08
2022-11-12T20:55:17.074Z,54.58
2022-11-12T20:57:44.017Z,56.47
2022-11-12T21:00:14.086Z,49.53
2022-11-12T21:02:41.684Z,48.65
2022-11-12T21:05:08.595Z,53.13
2022-11-12T21:08:25.559Z,54.08
2022-11-12T21:11:15.628Z,58.80
2022-11-12T21:13:42.694Z,51.28
2022-11-12T21:16:10.897Z,55.30
2022-11-12T21:18:38.297Z,53.20
2022-11-12T21:21:11.403Z,54.05
2022-11-12T21:23:40.974Z,58.20
2022-11-12T21:28:48.354Z,58.87
2022-11-12T21:31:23.484Z,60.12
2022-11-12T21:34:03.171Z,58.40
2022-11-12T21:36:31.824Z,57.97
2022-11-12T21:39:02.548Z,60.53
2022-11-12T21:42:25.964Z,57.92
2022-11-12T21:45:35.223Z,58.35
2022-11-12T21:48:01.757Z,65.15
2022-11-12T21:50:28.531Z,61.28
2022-11-12T21:52:56.371Z,62.35
2022-11-12T21:55:22.959Z,55.70
2022-11-12T21:57:49.494Z,60.53
2022-11-12T22:00:40.817Z,60.33
2022-11-12T22:03:03.321Z,59.58
2022-11-12T22:05:29.911Z,64.60
2022-11-12T22:07:56.500Z,63.42
2022-11-12T22:10:23.046Z,60.08
2022-11-12T22:13:19.753Z,61.03
2022-11-12T22:18:11.353Z,61.15
2022-11-12T22:20:37.872Z,57.33
2022-11-12T22:23:07.181Z,57.28
2022-11-12T22:25:33.709Z,57.97
2022-11-12T22:28:00.273Z,59.67
2022-11-12T22:30:45.625Z,56.80
2022-11-12T22:37:17.504Z,60.42
2022-11-12T22:39:44.036Z,58.05
2022-11-12T22:42:10.629Z,56.95
2022-11-12T22:44:37.166Z,60.78
2022-11-12T22:47:03.744Z,59.67
2022-11-12T22:49:30.267Z,57.53
2022-11-12T22:51:56.882Z,58.97
2022-11-12T23:00:01.003Z,68.53
2022-11-12T23:02:27.928Z,60.92
2022-11-12T23:04:54.496Z,59.78
2022-11-12T23:07:51.948Z,58.67
2022-11-12T23:10:44.456Z,64.22
2022-11-12T23:13:12.225Z,57.25
2022-11-12T23:15:42.722Z,60.17
2022-11-12T23:18:09.389Z,67.85
2022-11-12T23:20:35.920Z,66.53
2022-11-12T23:23:03.251Z,62.62
2022-11-12T23:25:45.342Z,67.90
2022-11-12T23:31:14.447Z,65.00
2022-11-12T23:33:45.654Z,65.12
2022-11-12T23:36:12.690Z,59.97
2022-11-12T23:41:17.028Z,62.08
2022-11-12T23:43:44.506Z,67.78
2022-11-12T23:46:29.534Z,57.30
2022-11-12T23:49:26.937Z,66.50
2022-11-12T23:52:08.878Z,86.63
2022-11-12T23:54:35.530Z,113.25
2022-11-12T23:57:02.095Z,181.57
2022-11-12T23:59:28.630Z,170.00
